FFT3406 KSEA-KDEN
Flight info
| Callsign | FFT3406 |
|---|---|
| Flight time | 2h 8m |
| Altitude | 37000 |
| Route | SUMMA2 SUMMA J54 BKE PIH MJANE FLATI5 |
| Aircraft | A20N/M-SDE2E3FGHIRWXY/LB1 |
Departure
| Time | 2026-05-08 01:40 |
|---|---|
| Airport | Seattle–Tacoma International Airport (KSEA) |
Arrival
| Time | 2026-05-08 03:48 |
|---|---|
| Airport | Denver International Airport (KDEN) |
| Time | Latitude | Longitude | Altitude | Speed | Heading |
|---|---|---|---|---|---|
| 2026-05-08 00:55 | 47.44670 | -122.29981 | 383 ft | 0 kts | 167° |
| 2026-05-08 01:25 | 47.44674 | -122.29982 | 383 ft | 1 kts | 167° |
| 2026-05-08 01:26 | 47.44683 | -122.29985 | 383 ft | 1 kts | 167° |
| 2026-05-08 01:26 | 47.44693 | -122.29988 | 383 ft | 1 kts | 167° |
| 2026-05-08 01:26 | 47.44705 | -122.29992 | 383 ft | 2 kts | 170° |
| 2026-05-08 01:26 | 47.44719 | -122.29995 | 383 ft | 2 kts | 173° |
| 2026-05-08 01:27 | 47.44732 | -122.29997 | 383 ft | 2 kts | 175° |
| 2026-05-08 01:27 | 47.44745 | -122.29998 | 383 ft | 2 kts | 186° |
| 2026-05-08 01:27 | 47.44759 | -122.29995 | 383 ft | 2 kts | 203° |
| 2026-05-08 01:27 | 47.44763 | -122.29992 | 383 ft | 0 kts | 211° |
| 2026-05-08 01:34 | 47.44759 | -122.29996 | 383 ft | 3 kts | 211° |
| 2026-05-08 01:34 | 47.44733 | -122.30032 | 383 ft | 6 kts | 247° |
| 2026-05-08 01:34 | 47.44704 | -122.30098 | 383 ft | 9 kts | 232° |
| 2026-05-08 01:35 | 47.44685 | -122.30190 | 383 ft | 11 kts | 282° |
| 2026-05-08 01:35 | 47.44717 | -122.30303 | 383 ft | 13 kts | 297° |
| 2026-05-08 01:35 | 47.44767 | -122.30421 | 383 ft | 15 kts | 282° |
| 2026-05-08 01:35 | 47.44780 | -122.30584 | 383 ft | 16 kts | 294° |
| 2026-05-08 01:36 | 47.44880 | -122.30621 | 383 ft | 16 kts | 1° |
| 2026-05-08 01:36 | 47.45001 | -122.30622 | 383 ft | 19 kts | 358° |
| 2026-05-08 01:36 | 47.45141 | -122.30625 | 383 ft | 21 kts | 1° |
| 2026-05-08 01:36 | 47.45295 | -122.30621 | 383 ft | 23 kts | 1° |
| 2026-05-08 01:37 | 47.45462 | -122.30615 | 383 ft | 25 kts | 1° |
| 2026-05-08 01:37 | 47.45640 | -122.30614 | 383 ft | 26 kts | 357° |
| 2026-05-08 01:37 | 47.45829 | -122.30619 | 383 ft | 28 kts | 1° |
| 2026-05-08 01:37 | 47.46026 | -122.30618 | 383 ft | 29 kts | 0° |
| 2026-05-08 01:38 | 47.46227 | -122.30615 | 383 ft | 27 kts | 0° |
| 2026-05-08 01:38 | 47.46358 | -122.30629 | 383 ft | 4 kts | 329° |
| 2026-05-08 01:39 | 47.46360 | -122.30631 | 383 ft | 2 kts | 329° |
| 2026-05-08 01:39 | 47.46377 | -122.30688 | 383 ft | 12 kts | 275° |
| 2026-05-08 01:39 | 47.46296 | -122.30774 | 383 ft | 20 kts | 187° |
| 2026-05-08 01:39 | 47.46095 | -122.30783 | 383 ft | 50 kts | 180° |
| 2026-05-08 01:40 | 47.45515 | -122.30787 | 383 ft | 113 kts | 180° |
| 2026-05-08 01:40 | 47.44557 | -122.30796 | 397 ft | 159 kts | 180° |
| 2026-05-08 01:40 | 47.43490 | -122.30789 | 1014 ft | 153 kts | 180° |
| 2026-05-08 01:40 | 47.42395 | -122.30823 | 1561 ft | 159 kts | 182° |
| 2026-05-08 01:41 | 47.41306 | -122.30888 | 2146 ft | 162 kts | 182° |
| 2026-05-08 01:41 | 47.40130 | -122.30938 | 2525 ft | 179 kts | 181° |
| 2026-05-08 01:41 | 47.38811 | -122.30966 | 2870 ft | 197 kts | 181° |
| 2026-05-08 01:41 | 47.37360 | -122.30976 | 3132 ft | 220 kts | 180° |
| 2026-05-08 01:42 | 47.35749 | -122.30976 | 3552 ft | 242 kts | 180° |
| 2026-05-08 01:42 | 47.33994 | -122.30971 | 4124 ft | 260 kts | 180° |
| 2026-05-08 01:42 | 47.32169 | -122.30967 | 5076 ft | 264 kts | 181° |
| 2026-05-08 01:42 | 47.30324 | -122.30965 | 6099 ft | 267 kts | 181° |
| 2026-05-08 01:43 | 47.28477 | -122.30963 | 7026 ft | 272 kts | 181° |
| 2026-05-08 01:43 | 47.26568 | -122.30958 | 7902 ft | 277 kts | 180° |
| 2026-05-08 01:43 | 47.24634 | -122.30628 | 8792 ft | 283 kts | 168° |
| 2026-05-08 01:43 | 47.22735 | -122.29761 | 9675 ft | 289 kts | 161° |
| 2026-05-08 01:44 | 47.20811 | -122.28736 | 10402 ft | 301 kts | 161° |
| 2026-05-08 01:44 | 47.18761 | -122.27664 | 10706 ft | 325 kts | 162° |
| 2026-05-08 01:44 | 47.16555 | -122.26527 | 11077 ft | 344 kts | 162° |
| 2026-05-08 01:44 | 47.14279 | -122.25361 | 11823 ft | 349 kts | 162° |
| 2026-05-08 01:45 | 47.12027 | -122.24209 | 12577 ft | 354 kts | 162° |
| 2026-05-08 01:45 | 47.09625 | -122.22983 | 13369 ft | 359 kts | 162° |
| 2026-05-08 01:45 | 47.07247 | -122.21771 | 14102 ft | 364 kts | 162° |
| 2026-05-08 01:45 | 47.04873 | -122.20564 | 14776 ft | 368 kts | 163° |
| 2026-05-08 01:46 | 47.02440 | -122.19326 | 15464 ft | 372 kts | 163° |
| 2026-05-08 01:46 | 46.99981 | -122.18077 | 16148 ft | 377 kts | 163° |
| 2026-05-08 01:46 | 46.97489 | -122.16813 | 16812 ft | 381 kts | 163° |
| 2026-05-08 01:46 | 46.94968 | -122.15535 | 17444 ft | 386 kts | 163° |
| 2026-05-08 01:47 | 46.92419 | -122.14244 | 18084 ft | 390 kts | 163° |
| 2026-05-08 01:47 | 46.89840 | -122.12938 | 18682 ft | 394 kts | 163° |
| 2026-05-08 01:47 | 46.87235 | -122.11621 | 19256 ft | 397 kts | 163° |
| 2026-05-08 01:48 | 46.81978 | -122.08967 | 20394 ft | 404 kts | 164° |
| 2026-05-08 01:48 | 46.79307 | -122.07621 | 20981 ft | 407 kts | 164° |
| 2026-05-08 01:48 | 46.76653 | -122.06286 | 21533 ft | 411 kts | 164° |
| 2026-05-08 01:48 | 46.73940 | -122.04921 | 22095 ft | 414 kts | 164° |
| 2026-05-08 01:49 | 46.71205 | -122.03547 | 22637 ft | 418 kts | 164° |
| 2026-05-08 01:49 | 46.68439 | -122.02158 | 23197 ft | 421 kts | 164° |
| 2026-05-08 01:49 | 46.65660 | -122.00759 | 23715 ft | 426 kts | 162° |
| 2026-05-08 01:49 | 46.62996 | -121.98784 | 24180 ft | 434 kts | 148° |
| 2026-05-08 01:50 | 46.60707 | -121.95876 | 24618 ft | 442 kts | 133° |
| 2026-05-08 01:50 | 46.58907 | -121.92215 | 25037 ft | 448 kts | 122° |
| 2026-05-08 01:50 | 46.57372 | -121.88254 | 25484 ft | 452 kts | 120° |
| 2026-05-08 01:50 | 46.55878 | -121.84219 | 25904 ft | 455 kts | 120° |
| 2026-05-08 01:51 | 46.54356 | -121.80171 | 26241 ft | 459 kts | 120° |
| 2026-05-08 01:51 | 46.52814 | -121.76174 | 26692 ft | 460 kts | 121° |
| 2026-05-08 01:51 | 46.51225 | -121.72125 | 27104 ft | 463 kts | 121° |
| 2026-05-08 01:51 | 46.49611 | -121.68056 | 27474 ft | 467 kts | 121° |
| 2026-05-08 01:52 | 46.47983 | -121.63970 | 27865 ft | 469 kts | 122° |
| 2026-05-08 01:52 | 46.46342 | -121.59864 | 28218 ft | 472 kts | 122° |
| 2026-05-08 01:52 | 46.44684 | -121.55728 | 28570 ft | 475 kts | 122° |
| 2026-05-08 01:52 | 46.43020 | -121.51577 | 28872 ft | 478 kts | 122° |
| 2026-05-08 01:53 | 46.41347 | -121.47405 | 29187 ft | 481 kts | 122° |
| 2026-05-08 01:53 | 46.39658 | -121.43200 | 29503 ft | 484 kts | 122° |
| 2026-05-08 01:53 | 46.37982 | -121.39034 | 29812 ft | 487 kts | 122° |
| 2026-05-08 01:53 | 46.36273 | -121.34795 | 30124 ft | 488 kts | 122° |
| 2026-05-08 01:54 | 46.34556 | -121.30540 | 30367 ft | 492 kts | 122° |
| 2026-05-08 01:54 | 46.32822 | -121.26253 | 30647 ft | 494 kts | 122° |
| 2026-05-08 01:54 | 46.31085 | -121.21963 | 30936 ft | 496 kts | 122° |
| 2026-05-08 01:54 | 46.29333 | -121.17646 | 31225 ft | 498 kts | 122° |
| 2026-05-08 01:55 | 46.27579 | -121.13330 | 31583 ft | 498 kts | 122° |
| 2026-05-08 01:55 | 46.25822 | -121.09012 | 31951 ft | 498 kts | 121° |
| 2026-05-08 01:55 | 46.24066 | -121.04704 | 32294 ft | 498 kts | 121° |
| 2026-05-08 01:55 | 46.22310 | -121.00402 | 32634 ft | 498 kts | 121° |
| 2026-05-08 01:56 | 46.20551 | -120.96100 | 32979 ft | 498 kts | 121° |
| 2026-05-08 01:56 | 46.18813 | -120.91858 | 33307 ft | 497 kts | 121° |
| 2026-05-08 01:56 | 46.17052 | -120.87563 | 33653 ft | 497 kts | 121° |
| 2026-05-08 01:56 | 46.15291 | -120.83273 | 33969 ft | 497 kts | 121° |
| 2026-05-08 01:57 | 46.13529 | -120.78991 | 34256 ft | 496 kts | 121° |
| 2026-05-08 01:57 | 46.11769 | -120.74717 | 34535 ft | 496 kts | 121° |
| 2026-05-08 01:57 | 46.10008 | -120.70449 | 34801 ft | 495 kts | 121° |
| 2026-05-08 01:57 | 46.08246 | -120.66186 | 35075 ft | 495 kts | 121° |
| 2026-05-08 01:58 | 46.06484 | -120.61926 | 35321 ft | 495 kts | 121° |
| 2026-05-08 01:58 | 46.04723 | -120.57678 | 35545 ft | 495 kts | 121° |
| 2026-05-08 01:58 | 46.02960 | -120.53432 | 35826 ft | 494 kts | 121° |
| 2026-05-08 01:58 | 46.01221 | -120.49250 | 36073 ft | 493 kts | 121° |
| 2026-05-08 01:59 | 45.99460 | -120.45022 | 36298 ft | 493 kts | 121° |
| 2026-05-08 01:59 | 45.97696 | -120.40791 | 36486 ft | 493 kts | 121° |
| 2026-05-08 01:59 | 45.95931 | -120.36566 | 36688 ft | 493 kts | 121° |
| 2026-05-08 01:59 | 45.94167 | -120.32347 | 36896 ft | 493 kts | 121° |
| 2026-05-08 02:00 | 45.90634 | -120.23919 | 36948 ft | 491 kts | 121° |
| 2026-05-08 02:00 | 45.87104 | -120.15522 | 36954 ft | 492 kts | 121° |
| 2026-05-08 02:01 | 45.83587 | -120.07182 | 36951 ft | 492 kts | 121° |
| 2026-05-08 02:01 | 45.80038 | -119.98793 | 36952 ft | 491 kts | 121° |
| 2026-05-08 02:02 | 45.76489 | -119.90424 | 36951 ft | 492 kts | 121° |
| 2026-05-08 02:02 | 45.72931 | -119.82059 | 36958 ft | 492 kts | 121° |
| 2026-05-08 02:03 | 45.69367 | -119.73710 | 36959 ft | 492 kts | 121° |
| 2026-05-08 02:03 | 45.65816 | -119.65416 | 36968 ft | 492 kts | 121° |
| 2026-05-08 02:04 | 45.62240 | -119.57078 | 36970 ft | 492 kts | 121° |
| 2026-05-08 02:04 | 45.58652 | -119.48743 | 36978 ft | 493 kts | 121° |
| 2026-05-08 02:05 | 45.55055 | -119.40411 | 36978 ft | 493 kts | 121° |
| 2026-05-08 02:05 | 45.51453 | -119.32094 | 36987 ft | 493 kts | 121° |
| 2026-05-08 02:06 | 45.47849 | -119.23795 | 36996 ft | 493 kts | 121° |
| 2026-05-08 02:06 | 45.44257 | -119.15546 | 36995 ft | 493 kts | 121° |
| 2026-05-08 02:07 | 45.40634 | -119.07254 | 36998 ft | 493 kts | 122° |
| 2026-05-08 02:07 | 45.37004 | -118.98968 | 37000 ft | 494 kts | 121° |
| 2026-05-08 02:08 | 45.33363 | -118.90684 | 37000 ft | 494 kts | 121° |
| 2026-05-08 02:08 | 45.29720 | -118.82416 | 37017 ft | 494 kts | 121° |
| 2026-05-08 02:09 | 45.26091 | -118.74205 | 37030 ft | 494 kts | 121° |
| 2026-05-08 02:09 | 45.22428 | -118.65944 | 37046 ft | 495 kts | 121° |
| 2026-05-08 02:10 | 45.18761 | -118.57695 | 37063 ft | 495 kts | 121° |
| 2026-05-08 02:10 | 45.15079 | -118.49438 | 37067 ft | 496 kts | 121° |
| 2026-05-08 02:11 | 45.11388 | -118.41185 | 37065 ft | 497 kts | 121° |
| 2026-05-08 02:11 | 45.07713 | -118.32987 | 37060 ft | 496 kts | 121° |
| 2026-05-08 02:12 | 45.04017 | -118.24769 | 37058 ft | 496 kts | 122° |
| 2026-05-08 02:12 | 45.00305 | -118.16540 | 37055 ft | 496 kts | 122° |
| 2026-05-08 02:13 | 44.96592 | -118.08332 | 37045 ft | 496 kts | 122° |
| 2026-05-08 02:13 | 44.92872 | -118.00132 | 37043 ft | 496 kts | 122° |
| 2026-05-08 02:14 | 44.89163 | -117.91978 | 37044 ft | 497 kts | 122° |
| 2026-05-08 02:14 | 44.85428 | -117.83789 | 37045 ft | 497 kts | 122° |
| 2026-05-08 02:15 | 44.82101 | -117.75287 | 37045 ft | 496 kts | 114° |
| 2026-05-08 02:15 | 44.79070 | -117.66559 | 37043 ft | 496 kts | 114° |
| 2026-05-08 02:16 | 44.76035 | -117.57850 | 37031 ft | 496 kts | 114° |
| 2026-05-08 02:16 | 44.73009 | -117.49205 | 37018 ft | 496 kts | 114° |
| 2026-05-08 02:17 | 44.69946 | -117.40501 | 37005 ft | 497 kts | 114° |
| 2026-05-08 02:17 | 44.66875 | -117.31808 | 36996 ft | 497 kts | 114° |
| 2026-05-08 02:18 | 44.63790 | -117.23108 | 36983 ft | 498 kts | 114° |
| 2026-05-08 02:18 | 44.60694 | -117.14408 | 36986 ft | 498 kts | 114° |
| 2026-05-08 02:19 | 44.57609 | -117.05763 | 36976 ft | 498 kts | 114° |
| 2026-05-08 02:19 | 44.54504 | -116.97089 | 36979 ft | 498 kts | 114° |
| 2026-05-08 02:20 | 44.51384 | -116.88400 | 36977 ft | 499 kts | 114° |
| 2026-05-08 02:20 | 44.48255 | -116.79714 | 36977 ft | 500 kts | 114° |
| 2026-05-08 02:21 | 44.45134 | -116.71080 | 36972 ft | 501 kts | 114° |
| 2026-05-08 02:21 | 44.41988 | -116.62402 | 36971 ft | 500 kts | 114° |
| 2026-05-08 02:22 | 44.38827 | -116.53713 | 36972 ft | 501 kts | 114° |
| 2026-05-08 02:22 | 44.35666 | -116.45050 | 36973 ft | 501 kts | 114° |
| 2026-05-08 02:23 | 44.32492 | -116.36376 | 36976 ft | 501 kts | 114° |
| 2026-05-08 02:23 | 44.29336 | -116.27781 | 36978 ft | 501 kts | 114° |
| 2026-05-08 02:24 | 44.26146 | -116.19118 | 36983 ft | 502 kts | 114° |
| 2026-05-08 02:24 | 44.22945 | -116.10452 | 36971 ft | 503 kts | 114° |
| 2026-05-08 02:25 | 44.19735 | -116.01795 | 36979 ft | 503 kts | 114° |
| 2026-05-08 02:25 | 44.16514 | -115.93130 | 36980 ft | 503 kts | 114° |
| 2026-05-08 02:26 | 44.13310 | -115.84541 | 36975 ft | 503 kts | 114° |
| 2026-05-08 02:26 | 44.10079 | -115.75903 | 36969 ft | 503 kts | 114° |
| 2026-05-08 02:27 | 44.06842 | -115.67281 | 36970 ft | 502 kts | 114° |
| 2026-05-08 02:27 | 44.03599 | -115.58662 | 36971 ft | 504 kts | 114° |
| 2026-05-08 02:28 | 44.00370 | -115.50118 | 36958 ft | 503 kts | 114° |
| 2026-05-08 02:28 | 43.97108 | -115.41505 | 36961 ft | 502 kts | 114° |
| 2026-05-08 02:29 | 43.93852 | -115.32930 | 36977 ft | 503 kts | 114° |
| 2026-05-08 02:29 | 43.90580 | -115.24341 | 36967 ft | 504 kts | 114° |
| 2026-05-08 02:30 | 43.87328 | -115.15839 | 36966 ft | 503 kts | 114° |
| 2026-05-08 02:30 | 43.84047 | -115.07280 | 36961 ft | 503 kts | 114° |
| 2026-05-08 02:31 | 43.80759 | -114.98729 | 36968 ft | 503 kts | 114° |
| 2026-05-08 02:31 | 43.77456 | -114.90166 | 36974 ft | 505 kts | 114° |
| 2026-05-08 02:32 | 43.74145 | -114.81609 | 36966 ft | 504 kts | 114° |
| 2026-05-08 02:32 | 43.70848 | -114.73113 | 36961 ft | 505 kts | 114° |
| 2026-05-08 02:33 | 43.67519 | -114.64560 | 36969 ft | 505 kts | 114° |
| 2026-05-08 02:33 | 43.64231 | -114.56140 | 36984 ft | 505 kts | 114° |
| 2026-05-08 02:34 | 43.60891 | -114.47607 | 37000 ft | 505 kts | 114° |
| 2026-05-08 02:34 | 43.57565 | -114.39138 | 37023 ft | 506 kts | 114° |
| 2026-05-08 02:35 | 43.54207 | -114.30614 | 37029 ft | 506 kts | 114° |
| 2026-05-08 02:35 | 43.50842 | -114.22098 | 37034 ft | 506 kts | 114° |
| 2026-05-08 02:36 | 43.47471 | -114.13596 | 37007 ft | 506 kts | 114° |
| 2026-05-08 02:36 | 43.44100 | -114.05111 | 36968 ft | 507 kts | 114° |
| 2026-05-08 02:37 | 43.40731 | -113.96661 | 36907 ft | 507 kts | 114° |
| 2026-05-08 02:37 | 43.37333 | -113.88170 | 36879 ft | 506 kts | 114° |
| 2026-05-08 02:38 | 43.33928 | -113.79676 | 36836 ft | 507 kts | 114° |
| 2026-05-08 02:38 | 43.30518 | -113.71196 | 36832 ft | 507 kts | 114° |
| 2026-05-08 02:39 | 43.27101 | -113.62727 | 36837 ft | 507 kts | 114° |
| 2026-05-08 02:39 | 43.23701 | -113.54324 | 36840 ft | 507 kts | 114° |
| 2026-05-08 02:40 | 43.20270 | -113.45870 | 36832 ft | 508 kts | 114° |
| 2026-05-08 02:40 | 43.16828 | -113.37413 | 36840 ft | 508 kts | 115° |
| 2026-05-08 02:41 | 43.13382 | -113.28971 | 36842 ft | 508 kts | 115° |
| 2026-05-08 02:41 | 43.09952 | -113.20592 | 36851 ft | 508 kts | 115° |
| 2026-05-08 02:42 | 43.06493 | -113.12168 | 36846 ft | 508 kts | 115° |
| 2026-05-08 02:42 | 43.03029 | -113.03755 | 36862 ft | 508 kts | 115° |
| 2026-05-08 02:43 | 42.99560 | -112.95356 | 36897 ft | 508 kts | 115° |
| 2026-05-08 02:43 | 42.96082 | -112.86957 | 36930 ft | 507 kts | 115° |
| 2026-05-08 02:44 | 42.92628 | -112.78633 | 36957 ft | 507 kts | 115° |
| 2026-05-08 02:44 | 42.89147 | -112.70259 | 36980 ft | 507 kts | 115° |
| 2026-05-08 02:45 | 42.85733 | -112.61858 | 36984 ft | 504 kts | 110° |
| 2026-05-08 02:45 | 42.82993 | -112.53115 | 36981 ft | 501 kts | 107° |
| 2026-05-08 02:46 | 42.80318 | -112.44426 | 36956 ft | 501 kts | 107° |
| 2026-05-08 02:46 | 42.77535 | -112.35714 | 36949 ft | 502 kts | 108° |
| 2026-05-08 02:47 | 42.74724 | -112.27036 | 36942 ft | 502 kts | 108° |
| 2026-05-08 02:47 | 42.71896 | -112.18345 | 36928 ft | 502 kts | 108° |
| 2026-05-08 02:48 | 42.69085 | -112.09734 | 36923 ft | 501 kts | 108° |
| 2026-05-08 02:48 | 42.66245 | -112.01064 | 36941 ft | 503 kts | 108° |
| 2026-05-08 02:49 | 42.63402 | -111.92410 | 36940 ft | 500 kts | 108° |
| 2026-05-08 02:49 | 42.60557 | -111.83768 | 36948 ft | 503 kts | 108° |
| 2026-05-08 02:50 | 42.57695 | -111.75110 | 36953 ft | 503 kts | 108° |
| 2026-05-08 02:50 | 42.54845 | -111.66517 | 36964 ft | 503 kts | 108° |
| 2026-05-08 02:51 | 42.51974 | -111.57885 | 36961 ft | 501 kts | 108° |
| 2026-05-08 02:51 | 42.49096 | -111.49260 | 36972 ft | 501 kts | 108° |
| 2026-05-08 02:52 | 42.46237 | -111.40720 | 36976 ft | 503 kts | 108° |
| 2026-05-08 02:52 | 42.43361 | -111.32158 | 36982 ft | 503 kts | 108° |
| 2026-05-08 02:53 | 42.40457 | -111.23534 | 36962 ft | 504 kts | 108° |
| 2026-05-08 02:53 | 42.37544 | -111.14918 | 36972 ft | 504 kts | 108° |
| 2026-05-08 02:54 | 42.34625 | -111.06305 | 36981 ft | 504 kts | 108° |
| 2026-05-08 02:54 | 42.31719 | -110.97760 | 36980 ft | 504 kts | 108° |
| 2026-05-08 02:55 | 42.27320 | -110.84874 | 36981 ft | 504 kts | 108° |
| 2026-05-08 02:56 | 42.24378 | -110.76292 | 36984 ft | 504 kts | 108° |
| 2026-05-08 02:56 | 42.21430 | -110.67714 | 36989 ft | 505 kts | 108° |
| 2026-05-08 02:57 | 42.18487 | -110.59186 | 36975 ft | 504 kts | 108° |
| 2026-05-08 02:57 | 42.15521 | -110.50610 | 36988 ft | 505 kts | 109° |
| 2026-05-08 02:58 | 42.12547 | -110.42042 | 36993 ft | 505 kts | 109° |
| 2026-05-08 02:58 | 42.09564 | -110.33467 | 36994 ft | 505 kts | 109° |
| 2026-05-08 02:59 | 42.06575 | -110.24907 | 36974 ft | 504 kts | 109° |
| 2026-05-08 02:59 | 42.03608 | -110.16436 | 36948 ft | 504 kts | 109° |
| 2026-05-08 03:00 | 42.00614 | -110.07912 | 36940 ft | 504 kts | 109° |
| 2026-05-08 03:00 | 41.97618 | -109.99409 | 36940 ft | 503 kts | 109° |
| 2026-05-08 03:01 | 41.94612 | -109.90903 | 36937 ft | 503 kts | 109° |
| 2026-05-08 03:01 | 41.91605 | -109.82419 | 36931 ft | 503 kts | 109° |
| 2026-05-08 03:02 | 41.88613 | -109.74003 | 36930 ft | 503 kts | 109° |
| 2026-05-08 03:02 | 41.85595 | -109.65540 | 36932 ft | 503 kts | 109° |
| 2026-05-08 03:03 | 41.82570 | -109.57084 | 36930 ft | 503 kts | 110° |
| 2026-05-08 03:03 | 41.79541 | -109.48642 | 36932 ft | 502 kts | 110° |
| 2026-05-08 03:04 | 41.76510 | -109.40216 | 36965 ft | 502 kts | 110° |
| 2026-05-08 03:04 | 41.73491 | -109.31851 | 37004 ft | 502 kts | 110° |
| 2026-05-08 03:05 | 41.70449 | -109.23446 | 37047 ft | 502 kts | 110° |
| 2026-05-08 03:05 | 41.67404 | -109.15057 | 37083 ft | 502 kts | 110° |
| 2026-05-08 03:06 | 41.64865 | -109.08081 | 37089 ft | 501 kts | 110° |
| 2026-05-08 03:06 | 41.61809 | -108.99708 | 37092 ft | 500 kts | 110° |
| 2026-05-08 03:07 | 41.58261 | -108.90016 | 37072 ft | 499 kts | 110° |
| 2026-05-08 03:07 | 41.55722 | -108.83103 | 37043 ft | 499 kts | 110° |
| 2026-05-08 03:08 | 41.52666 | -108.74800 | 37009 ft | 498 kts | 111° |
| 2026-05-08 03:08 | 41.49109 | -108.65170 | 36960 ft | 497 kts | 111° |
| 2026-05-08 03:09 | 41.46048 | -108.56907 | 36949 ft | 497 kts | 111° |
| 2026-05-08 03:09 | 41.43497 | -108.50038 | 36948 ft | 497 kts | 111° |
| 2026-05-08 03:10 | 41.40428 | -108.41787 | 36953 ft | 497 kts | 111° |
| 2026-05-08 03:10 | 41.37048 | -108.32114 | 36952 ft | 491 kts | 102° |
| 2026-05-08 03:11 | 41.35288 | -108.24879 | 36950 ft | 490 kts | 102° |
| 2026-05-08 03:11 | 41.33223 | -108.16283 | 36949 ft | 492 kts | 102° |
| 2026-05-08 03:12 | 41.31111 | -108.07623 | 36948 ft | 492 kts | 102° |
| 2026-05-08 03:12 | 41.28981 | -107.98969 | 36950 ft | 492 kts | 103° |
| 2026-05-08 03:13 | 41.26843 | -107.90314 | 36950 ft | 493 kts | 103° |
| 2026-05-08 03:13 | 41.24698 | -107.81664 | 36975 ft | 493 kts | 103° |
| 2026-05-08 03:14 | 41.22559 | -107.73072 | 37015 ft | 493 kts | 103° |
| 2026-05-08 03:14 | 41.20402 | -107.64437 | 37045 ft | 493 kts | 104° |
| 2026-05-08 03:15 | 41.18235 | -107.55791 | 37071 ft | 493 kts | 104° |
| 2026-05-08 03:15 | 41.16063 | -107.47158 | 37090 ft | 494 kts | 104° |
| 2026-05-08 03:16 | 41.13894 | -107.38569 | 37074 ft | 493 kts | 104° |
| 2026-05-08 03:16 | 41.11712 | -107.29951 | 37064 ft | 495 kts | 104° |
| 2026-05-08 03:17 | 41.09510 | -107.21296 | 37049 ft | 495 kts | 104° |
| 2026-05-08 03:17 | 41.07305 | -107.12653 | 37031 ft | 495 kts | 104° |
| 2026-05-08 03:18 | 41.05095 | -107.04018 | 37010 ft | 494 kts | 105° |
| 2026-05-08 03:18 | 41.02895 | -106.95457 | 37009 ft | 495 kts | 105° |
| 2026-05-08 03:19 | 41.00674 | -106.86848 | 36734 ft | 494 kts | 105° |
| 2026-05-08 03:19 | 40.99562 | -106.82548 | 36481 ft | 494 kts | 105° |
| 2026-05-08 03:19 | 40.98448 | -106.78251 | 36225 ft | 493 kts | 105° |
| 2026-05-08 03:19 | 40.97336 | -106.73963 | 35974 ft | 494 kts | 105° |
| 2026-05-08 03:20 | 40.96219 | -106.69665 | 35721 ft | 494 kts | 105° |
| 2026-05-08 03:20 | 40.95101 | -106.65370 | 35475 ft | 493 kts | 105° |
| 2026-05-08 03:20 | 40.93996 | -106.61134 | 35230 ft | 493 kts | 105° |
| 2026-05-08 03:20 | 40.92876 | -106.56851 | 34989 ft | 493 kts | 105° |
| 2026-05-08 03:21 | 40.91753 | -106.52564 | 34747 ft | 493 kts | 105° |
| 2026-05-08 03:21 | 40.90632 | -106.48288 | 34505 ft | 493 kts | 105° |
| 2026-05-08 03:21 | 40.89504 | -106.43994 | 34269 ft | 494 kts | 105° |
| 2026-05-08 03:21 | 40.88376 | -106.39709 | 34036 ft | 494 kts | 105° |
| 2026-05-08 03:22 | 40.87248 | -106.35434 | 33621 ft | 492 kts | 105° |
| 2026-05-08 03:22 | 40.86124 | -106.31173 | 32938 ft | 492 kts | 105° |
| 2026-05-08 03:22 | 40.84994 | -106.26900 | 32131 ft | 493 kts | 106° |
| 2026-05-08 03:22 | 40.83683 | -106.22755 | 31380 ft | 497 kts | 113° |
| 2026-05-08 03:23 | 40.82215 | -106.18663 | 30891 ft | 490 kts | 112° |
| 2026-05-08 03:23 | 40.80777 | -106.14606 | 30311 ft | 487 kts | 112° |
| 2026-05-08 03:23 | 40.79349 | -106.10566 | 29751 ft | 483 kts | 113° |
| 2026-05-08 03:23 | 40.77937 | -106.06581 | 29208 ft | 477 kts | 113° |
| 2026-05-08 03:24 | 40.76537 | -106.02641 | 28657 ft | 472 kts | 113° |
| 2026-05-08 03:24 | 40.75148 | -105.98739 | 28099 ft | 467 kts | 114° |
| 2026-05-08 03:24 | 40.73770 | -105.94875 | 27550 ft | 463 kts | 114° |
| 2026-05-08 03:24 | 40.72407 | -105.91059 | 27014 ft | 459 kts | 114° |
| 2026-05-08 03:25 | 40.71071 | -105.87327 | 26631 ft | 451 kts | 114° |
| 2026-05-08 03:25 | 40.69731 | -105.83596 | 26250 ft | 451 kts | 114° |
| 2026-05-08 03:25 | 40.68389 | -105.79860 | 25878 ft | 451 kts | 114° |
| 2026-05-08 03:25 | 40.67054 | -105.76146 | 25509 ft | 447 kts | 114° |
| 2026-05-08 03:26 | 40.65724 | -105.72455 | 25126 ft | 444 kts | 115° |
| 2026-05-08 03:26 | 40.64405 | -105.68798 | 24754 ft | 440 kts | 115° |
| 2026-05-08 03:26 | 40.63097 | -105.65177 | 24387 ft | 437 kts | 115° |
| 2026-05-08 03:26 | 40.61793 | -105.61571 | 24019 ft | 434 kts | 115° |
| 2026-05-08 03:27 | 40.60499 | -105.57997 | 23653 ft | 432 kts | 115° |
| 2026-05-08 03:27 | 40.59213 | -105.54449 | 23250 ft | 428 kts | 115° |
| 2026-05-08 03:27 | 40.57949 | -105.50969 | 22892 ft | 426 kts | 115° |
| 2026-05-08 03:27 | 40.56674 | -105.47459 | 22540 ft | 424 kts | 115° |
| 2026-05-08 03:28 | 40.55405 | -105.43974 | 22274 ft | 418 kts | 115° |
| 2026-05-08 03:28 | 40.54160 | -105.40555 | 21870 ft | 413 kts | 115° |
| 2026-05-08 03:28 | 40.52916 | -105.37166 | 21333 ft | 411 kts | 116° |
| 2026-05-08 03:28 | 40.51666 | -105.33803 | 20808 ft | 408 kts | 116° |
| 2026-05-08 03:29 | 40.50422 | -105.30461 | 20293 ft | 406 kts | 116° |
| 2026-05-08 03:29 | 40.49184 | -105.27136 | 19784 ft | 404 kts | 116° |
| 2026-05-08 03:29 | 40.47951 | -105.23786 | 19292 ft | 413 kts | 115° |
| 2026-05-08 03:29 | 40.46693 | -105.20452 | 18808 ft | 412 kts | 121° |
| 2026-05-08 03:30 | 40.42827 | -105.15100 | 17779 ft | 401 kts | 147° |
| 2026-05-08 03:30 | 40.38296 | -105.10927 | 16690 ft | 395 kts | 147° |
| 2026-05-08 03:31 | 40.33847 | -105.06805 | 15633 ft | 389 kts | 146° |
| 2026-05-08 03:31 | 40.29459 | -105.02740 | 14598 ft | 383 kts | 146° |
| 2026-05-08 03:32 | 40.27288 | -105.00730 | 14115 ft | 381 kts | 146° |
| 2026-05-08 03:32 | 40.25128 | -104.98733 | 13598 ft | 379 kts | 146° |
| 2026-05-08 03:32 | 40.23013 | -104.96779 | 13057 ft | 376 kts | 146° |
| 2026-05-08 03:32 | 40.20882 | -104.94811 | 12516 ft | 374 kts | 146° |
| 2026-05-08 03:33 | 40.18761 | -104.92902 | 12228 ft | 363 kts | 150° |
| 2026-05-08 03:33 | 40.16561 | -104.91435 | 12075 ft | 348 kts | 159° |
| 2026-05-08 03:33 | 40.14374 | -104.90218 | 11956 ft | 335 kts | 159° |
| 2026-05-08 03:33 | 40.12262 | -104.89033 | 11715 ft | 327 kts | 159° |
| 2026-05-08 03:34 | 40.10195 | -104.87871 | 11509 ft | 318 kts | 159° |
| 2026-05-08 03:34 | 40.08192 | -104.86743 | 11416 ft | 319 kts | 159° |
| 2026-05-08 03:34 | 40.06147 | -104.85594 | 11322 ft | 320 kts | 159° |
| 2026-05-08 03:34 | 40.04110 | -104.84448 | 11225 ft | 318 kts | 159° |
| 2026-05-08 03:35 | 40.02080 | -104.83294 | 11130 ft | 318 kts | 158° |
| 2026-05-08 03:35 | 40.00060 | -104.82138 | 11030 ft | 317 kts | 158° |
| 2026-05-08 03:35 | 39.98026 | -104.81043 | 10981 ft | 315 kts | 165° |
| 2026-05-08 03:35 | 39.95890 | -104.80489 | 10974 ft | 312 kts | 179° |
| 2026-05-08 03:36 | 39.93727 | -104.80493 | 10977 ft | 311 kts | 185° |
| 2026-05-08 03:36 | 39.91564 | -104.80566 | 10986 ft | 311 kts | 184° |
| 2026-05-08 03:36 | 39.89407 | -104.80627 | 10988 ft | 311 kts | 184° |
| 2026-05-08 03:36 | 39.86697 | -104.80698 | 10991 ft | 310 kts | 184° |
| 2026-05-08 03:37 | 39.85238 | -104.80736 | 10992 ft | 311 kts | 184° |
| 2026-05-08 03:37 | 39.82384 | -104.80810 | 10983 ft | 309 kts | 184° |
| 2026-05-08 03:37 | 39.80950 | -104.80846 | 10981 ft | 299 kts | 184° |
| 2026-05-08 03:37 | 39.78947 | -104.80893 | 10988 ft | 284 kts | 185° |
| 2026-05-08 03:38 | 39.77014 | -104.80939 | 10898 ft | 272 kts | 185° |
| 2026-05-08 03:38 | 39.75162 | -104.80987 | 10763 ft | 262 kts | 185° |
| 2026-05-08 03:38 | 39.73345 | -104.81039 | 10469 ft | 260 kts | 185° |
| 2026-05-08 03:38 | 39.71539 | -104.81092 | 10156 ft | 260 kts | 185° |
| 2026-05-08 03:39 | 39.69741 | -104.81143 | 9857 ft | 258 kts | 185° |
| 2026-05-08 03:39 | 39.67958 | -104.81192 | 9563 ft | 254 kts | 185° |
| 2026-05-08 03:39 | 39.66192 | -104.81239 | 9239 ft | 253 kts | 185° |
| 2026-05-08 03:39 | 39.64451 | -104.81285 | 9062 ft | 247 kts | 185° |
| 2026-05-08 03:40 | 39.62712 | -104.81335 | 9025 ft | 252 kts | 185° |
| 2026-05-08 03:40 | 39.60987 | -104.81383 | 9023 ft | 251 kts | 185° |
| 2026-05-08 03:40 | 39.59242 | -104.81354 | 9020 ft | 253 kts | 172° |
| 2026-05-08 03:40 | 39.57636 | -104.80453 | 9019 ft | 251 kts | 142° |
| 2026-05-08 03:41 | 39.56629 | -104.78724 | 9017 ft | 234 kts | 108° |
| 2026-05-08 03:41 | 39.56406 | -104.76656 | 9028 ft | 236 kts | 88° |
| 2026-05-08 03:41 | 39.56407 | -104.74537 | 9023 ft | 234 kts | 87° |
| 2026-05-08 03:41 | 39.56538 | -104.72454 | 9016 ft | 230 kts | 68° |
| 2026-05-08 03:42 | 39.57383 | -104.70760 | 9017 ft | 223 kts | 34° |
| 2026-05-08 03:42 | 39.58671 | -104.69670 | 9000 ft | 219 kts | 20° |
| 2026-05-08 03:42 | 39.60083 | -104.69110 | 8988 ft | 214 kts | 3° |
| 2026-05-08 03:42 | 39.61556 | -104.68966 | 8994 ft | 212 kts | 356° |
| 2026-05-08 03:43 | 39.63025 | -104.68977 | 8999 ft | 211 kts | 356° |
| 2026-05-08 03:43 | 39.64490 | -104.68962 | 9000 ft | 210 kts | 356° |
| 2026-05-08 03:43 | 39.65959 | -104.68947 | 8995 ft | 211 kts | 356° |
| 2026-05-08 03:43 | 39.67431 | -104.68930 | 8976 ft | 212 kts | 356° |
| 2026-05-08 03:44 | 39.68905 | -104.68914 | 8766 ft | 213 kts | 356° |
| 2026-05-08 03:44 | 39.70376 | -104.68896 | 8527 ft | 205 kts | 356° |
| 2026-05-08 03:44 | 39.71754 | -104.68879 | 8217 ft | 191 kts | 356° |
| 2026-05-08 03:44 | 39.73033 | -104.68865 | 7988 ft | 177 kts | 356° |
| 2026-05-08 03:45 | 39.74208 | -104.68852 | 7747 ft | 166 kts | 356° |
| 2026-05-08 03:45 | 39.75324 | -104.68839 | 7536 ft | 159 kts | 356° |
| 2026-05-08 03:45 | 39.76443 | -104.68829 | 7352 ft | 161 kts | 356° |
| 2026-05-08 03:45 | 39.77567 | -104.68815 | 7154 ft | 160 kts | 356° |
| 2026-05-08 03:46 | 39.78631 | -104.68801 | 6953 ft | 147 kts | 356° |
| 2026-05-08 03:46 | 39.79651 | -104.68792 | 6769 ft | 147 kts | 356° |
| 2026-05-08 03:46 | 39.80676 | -104.68780 | 6586 ft | 148 kts | 356° |
| 2026-05-08 03:46 | 39.81699 | -104.68769 | 6398 ft | 147 kts | 356° |
| 2026-05-08 03:47 | 39.82726 | -104.68758 | 6187 ft | 146 kts | 358° |
| 2026-05-08 03:47 | 39.83709 | -104.68746 | 5977 ft | 141 kts | 0° |
| 2026-05-08 03:47 | 39.84685 | -104.68736 | 5755 ft | 140 kts | 2° |
| 2026-05-08 03:47 | 39.85650 | -104.68726 | 5543 ft | 136 kts | 3° |
| 2026-05-08 03:48 | 39.86577 | -104.68715 | 5376 ft | 130 kts | 4° |
| 2026-05-08 03:48 | 39.87368 | -104.68685 | 5364 ft | 89 kts | 358° |
| 2026-05-08 03:48 | 39.87824 | -104.68686 | 5365 ft | 55 kts | 2° |
| 2026-05-08 03:48 | 39.88170 | -104.68669 | 5366 ft | 47 kts | 1° |
| 2026-05-08 03:49 | 39.88506 | -104.68628 | 5362 ft | 47 kts | 18° |
| 2026-05-08 03:49 | 39.88687 | -104.68514 | 5364 ft | 6 kts | 26° |
| 2026-05-08 03:49 | 39.88693 | -104.68510 | 5366 ft | 0 kts | 26° |
| 2026-05-08 03:50 | 39.88693 | -104.68498 | 5364 ft | 1 kts | 111° |
| 2026-05-08 03:50 | 39.88654 | -104.68486 | 5366 ft | 14 kts | 168° |
| 2026-05-08 03:50 | 39.88500 | -104.68487 | 5366 ft | 30 kts | 180° |
| 2026-05-08 03:51 | 39.88245 | -104.68485 | 5365 ft | 43 kts | 179° |
| 2026-05-08 03:51 | 39.87925 | -104.68500 | 5364 ft | 45 kts | 179° |
| 2026-05-08 03:51 | 39.87623 | -104.68490 | 5364 ft | 44 kts | 180° |
| 2026-05-08 03:51 | 39.87318 | -104.68489 | 5363 ft | 44 kts | 180° |
| 2026-05-08 03:52 | 39.87015 | -104.68495 | 5363 ft | 44 kts | 181° |
| 2026-05-08 03:52 | 39.86705 | -104.68502 | 5365 ft | 45 kts | 181° |
| 2026-05-08 03:52 | 39.86394 | -104.68500 | 5366 ft | 45 kts | 180° |
| 2026-05-08 03:52 | 39.86082 | -104.68503 | 5366 ft | 45 kts | 183° |
| 2026-05-08 03:53 | 39.85770 | -104.68512 | 5365 ft | 45 kts | 182° |
| 2026-05-08 03:53 | 39.85460 | -104.68509 | 5365 ft | 45 kts | 179° |
| 2026-05-08 03:53 | 39.85303 | -104.68428 | 5364 ft | 19 kts | 95° |
| 2026-05-08 03:53 | 39.85307 | -104.68278 | 5365 ft | 17 kts | 92° |
| 2026-05-08 03:54 | 39.85288 | -104.68116 | 5365 ft | 19 kts | 105° |
| 2026-05-08 03:54 | 39.85282 | -104.67943 | 5365 ft | 20 kts | 90° |
| 2026-05-08 03:54 | 39.85280 | -104.67754 | 5366 ft | 22 kts | 91° |
| 2026-05-08 03:54 | 39.85272 | -104.67556 | 5363 ft | 22 kts | 89° |
| 2026-05-08 03:55 | 39.85277 | -104.67348 | 5365 ft | 24 kts | 90° |
| 2026-05-08 03:55 | 39.85276 | -104.67131 | 5364 ft | 24 kts | 94° |
| 2026-05-08 03:55 | 39.85273 | -104.66908 | 5363 ft | 24 kts | 89° |
| 2026-05-08 03:55 | 39.85299 | -104.66848 | 5364 ft | 6 kts | 11° |
| 2026-05-08 03:56 | 39.85340 | -104.66843 | 5364 ft | 0 kts | 0° |